sensor_id;sensor_type;location;lat;lon;timestamp;pressure;altitude;pressure_sealevel;temperature;humidity
55066;BME280;40964;42.114;24.220;2023-02-07T00:01:19;99246.81;;;-1.88;53.37
55066;BME280;40964;42.114;24.220;2023-02-07T00:03:45;99250.53;;;-1.80;53.56
55066;BME280;40964;42.114;24.220;2023-02-07T00:06:13;99250.53;;;-1.80;52.73
55066;BME280;40964;42.114;24.220;2023-02-07T00:08:39;99246.19;;;-1.79;53.37
55066;BME280;40964;42.114;24.220;2023-02-07T00:11:07;99254.00;;;-1.81;53.46
55066;BME280;40964;42.114;24.220;2023-02-07T00:13:33;99255.47;;;-1.77;53.33
55066;BME280;40964;42.114;24.220;2023-02-07T00:15:59;99262.47;;;-1.79;53.56
55066;BME280;40964;42.114;24.220;2023-02-07T00:18:25;99263.31;;;-1.78;53.51
55066;BME280;40964;42.114;24.220;2023-02-07T00:21:05;99269.47;;;-1.81;54.54
55066;BME280;40964;42.114;24.220;2023-02-07T00:23:31;99274.13;;;-1.86;54.11
55066;BME280;40964;42.114;24.220;2023-02-07T00:25:57;99278.13;;;-1.82;54.28
55066;BME280;40964;42.114;24.220;2023-02-07T00:28:23;99259.69;;;-1.88;54.67
55066;BME280;40964;42.114;24.220;2023-02-07T00:30:49;99264.91;;;-1.90;54.38
55066;BME280;40964;42.114;24.220;2023-02-07T00:33:15;99277.31;;;-1.82;53.65
55066;BME280;40964;42.114;24.220;2023-02-07T00:35:40;99269.69;;;-1.84;54.48
55066;BME280;40964;42.114;24.220;2023-02-07T00:38:06;99282.28;;;-1.79;54.56
55066;BME280;40964;42.114;24.220;2023-02-07T00:40:31;99284.66;;;-1.76;55.27
55066;BME280;40964;42.114;24.220;2023-02-07T00:42:57;99280.44;;;-1.77;54.33
55066;BME280;40964;42.114;24.220;2023-02-07T00:45:22;99284.53;;;-1.75;53.88
55066;BME280;40964;42.114;24.220;2023-02-07T00:47:47;99293.75;;;-1.70;52.93
55066;BME280;40964;42.114;24.220;2023-02-07T00:50:13;99285.59;;;-1.77;54.50
55066;BME280;40964;42.114;24.220;2023-02-07T00:52:39;99295.06;;;-1.78;53.67
55066;BME280;40964;42.114;24.220;2023-02-07T00:55:05;99272.59;;;-1.88;54.45
55066;BME280;40964;42.114;24.220;2023-02-07T00:57:30;99281.97;;;-1.75;53.73
55066;BME280;40964;42.114;24.220;2023-02-07T00:59:56;99283.28;;;-1.82;53.15
55066;BME280;40964;42.114;24.220;2023-02-07T01:02:21;99285.03;;;-1.82;52.92
55066;BME280;40964;42.114;24.220;2023-02-07T01:04:47;99290.84;;;-1.79;53.06
55066;BME280;40964;42.114;24.220;2023-02-07T01:07:12;99286.81;;;-1.83;53.11
55066;BME280;40964;42.114;24.220;2023-02-07T01:09:38;99275.66;;;-1.83;53.30
55066;BME280;40964;42.114;24.220;2023-02-07T01:12:05;99281.13;;;-1.88;53.31
55066;BME280;40964;42.114;24.220;2023-02-07T01:14:31;99275.25;;;-1.77;53.21
55066;BME280;40964;42.114;24.220;2023-02-07T01:16:56;99284.66;;;-1.76;52.71
55066;BME280;40964;42.114;24.220;2023-02-07T01:19:22;99286.50;;;-1.78;52.59
55066;BME280;40964;42.114;24.220;2023-02-07T01:21:47;99287.84;;;-1.85;54.05
55066;BME280;40964;42.114;24.220;2023-02-07T01:24:13;99285.66;;;-1.91;53.82
55066;BME280;40964;42.114;24.220;2023-02-07T01:26:38;99280.72;;;-1.94;54.19
55066;BME280;40964;42.114;24.220;2023-02-07T01:29:05;99263.16;;;-2.02;54.21
55066;BME280;40964;42.114;24.220;2023-02-07T01:31:31;99273.69;;;-1.92;53.98
55066;BME280;40964;42.114;24.220;2023-02-07T01:33:57;99281.22;;;-1.89;54.49
55066;BME280;40964;42.114;24.220;2023-02-07T01:36:25;99276.81;;;-1.87;54.47
55066;BME280;40964;42.114;24.220;2023-02-07T01:38:52;99272.47;;;-1.87;54.00
55066;BME280;40964;42.114;24.220;2023-02-07T01:41:19;99285.88;;;-1.82;54.12
55066;BME280;40964;42.114;24.220;2023-02-07T01:43:59;99276.19;;;-1.78;54.07
55066;BME280;40964;42.114;24.220;2023-02-07T01:46:26;99282.19;;;-1.78;53.53
55066;BME280;40964;42.114;24.220;2023-02-07T01:48:53;99281.25;;;-1.77;53.94
55066;BME280;40964;42.114;24.220;2023-02-07T01:51:21;99242.34;;;-1.99;53.56
55066;BME280;40964;42.114;24.220;2023-02-07T01:53:47;99283.63;;;-1.74;53.97
55066;BME280;40964;42.114;24.220;2023-02-07T01:56:14;99286.00;;;-1.70;54.01
55066;BME280;40964;42.114;24.220;2023-02-07T01:58:41;99281.84;;;-1.73;54.03
55066;BME280;40964;42.114;24.220;2023-02-07T02:01:12;99280.59;;;-1.80;54.72
55066;BME280;40964;42.114;24.220;2023-02-07T02:03:42;99277.31;;;-1.82;53.91
55066;BME280;40964;42.114;24.220;2023-02-07T02:06:11;99268.66;;;-1.94;54.08
55066;BME280;40964;42.114;24.220;2023-02-07T02:08:38;99266.88;;;-1.93;54.22
55066;BME280;40964;42.114;24.220;2023-02-07T02:14:14;99279.47;;;-1.89;53.38
55066;BME280;40964;42.114;24.220;2023-02-07T02:16:47;99288.13;;;-1.90;54.18
55066;BME280;40964;42.114;24.220;2023-02-07T02:39:16;99284.50;;;-2.00;53.72
55066;BME280;40964;42.114;24.220;2023-02-07T02:44:19;99288.41;;;-2.07;54.78
55066;BME280;40964;42.114;24.220;2023-02-07T02:46:47;99275.22;;;-2.15;54.67
55066;BME280;40964;42.114;24.220;2023-02-07T02:49:15;99292.72;;;-2.08;55.34
55066;BME280;40964;42.114;24.220;2023-02-07T02:51:42;99283.56;;;-2.12;54.45
55066;BME280;40964;42.114;24.220;2023-02-07T02:54:27;99282.53;;;-2.09;54.60
55066;BME280;40964;42.114;24.220;2023-02-07T03:02:20;99285.94;;;-2.09;54.53
55066;BME280;40964;42.114;24.220;2023-02-07T03:10:17;99277.47;;;-2.11;54.60
55066;BME280;40964;42.114;24.220;2023-02-07T03:13:05;99287.19;;;-2.02;54.58
55066;BME280;40964;42.114;24.220;2023-02-07T03:15:46;99288.84;;;-2.01;54.45
55066;BME280;40964;42.114;24.220;2023-02-07T03:18:41;99285.97;;;-1.96;54.05
55066;BME280;40964;42.114;24.220;2023-02-07T03:21:33;99288.13;;;-1.90;53.19
55066;BME280;40964;42.114;24.220;2023-02-07T03:24:06;99287.84;;;-1.85;52.28
55066;BME280;40964;42.114;24.220;2023-02-07T03:26:33;99290.03;;;-1.79;52.66
55066;BME280;40964;42.114;24.220;2023-02-07T03:29:01;99291.66;;;-1.78;52.96
55066;BME280;40964;42.114;24.220;2023-02-07T03:31:30;99285.88;;;-1.82;52.62
55066;BME280;40964;42.114;24.220;2023-02-07T03:34:18;99300.22;;;-1.78;52.63
55066;BME280;40964;42.114;24.220;2023-02-07T03:39:47;99290.84;;;-1.79;52.52
55066;BME280;40964;42.114;24.220;2023-02-07T03:44:45;99281.03;;;-1.86;51.89
55066;BME280;40964;42.114;24.220;2023-02-07T03:47:11;99287.19;;;-1.89;52.95
55066;BME280;40964;42.114;24.220;2023-02-07T03:49:37;99279.34;;;-2.00;51.71
55066;BME280;40964;42.114;24.220;2023-02-07T03:52:02;99287.91;;;-2.00;52.04
55066;BME280;40964;42.114;24.220;2023-02-07T03:54:28;99292.56;;;-2.05;52.59
55066;BME280;40964;42.114;24.220;2023-02-07T03:56:53;99294.91;;;-2.14;52.52
55066;BME280;40964;42.114;24.220;2023-02-07T03:59:19;99286.13;;;-2.12;52.09
55066;BME280;40964;42.114;24.220;2023-02-07T04:01:44;99273.22;;;-2.24;52.18
55066;BME280;40964;42.114;24.220;2023-02-07T04:04:10;99289.22;;;-2.19;53.19
55066;BME280;40964;42.114;24.220;2023-02-07T04:06:36;99283.84;;;-2.16;52.22
55066;BME280;40964;42.114;24.220;2023-02-07T04:09:02;99287.56;;;-2.20;52.62
55066;BME280;40964;42.114;24.220;2023-02-07T04:11:28;99286.63;;;-2.19;52.83
55066;BME280;40964;42.114;24.220;2023-02-07T04:13:54;99299.94;;;-2.13;51.97
55066;BME280;40964;42.114;24.220;2023-02-07T04:16:19;99278.28;;;-2.23;52.52
55066;BME280;40964;42.114;24.220;2023-02-07T04:18:45;99295.72;;;-2.14;52.65
55066;BME280;40964;42.114;24.220;2023-02-07T04:21:11;99300.06;;;-2.14;52.09
55066;BME280;40964;42.114;24.220;2023-02-07T04:23:37;99296.13;;;-2.20;53.00
55066;BME280;40964;42.114;24.220;2023-02-07T04:26:03;99296.59;;;-2.28;52.79
55066;BME280;40964;42.114;24.220;2023-02-07T04:28:29;99301.47;;;-2.23;52.83
55066;BME280;40964;42.114;24.220;2023-02-07T04:30:55;99312.50;;;-2.21;53.15
55066;BME280;40964;42.114;24.220;2023-02-07T04:33:20;99310.44;;;-2.16;52.74
55066;BME280;40964;42.114;24.220;2023-02-07T04:35:56;99315.06;;;-2.21;52.87
55066;BME280;40964;42.114;24.220;2023-02-07T04:38:22;99323.63;;;-2.20;53.21
55066;BME280;40964;42.114;24.220;2023-02-07T04:40:48;99318.38;;;-2.19;53.66
55066;BME280;40964;42.114;24.220;2023-02-07T04:43:13;99323.25;;;-2.14;53.63
55066;BME280;40964;42.114;24.220;2023-02-07T04:45:39;99308.88;;;-2.31;53.62
55066;BME280;40964;42.114;24.220;2023-02-07T04:48:04;99328.06;;;-2.22;53.75
55066;BME280;40964;42.114;24.220;2023-02-07T04:50:30;99329.06;;;-2.25;53.36
55066;BME280;40964;42.114;24.220;2023-02-07T04:52:55;99323.09;;;-2.25;53.23
55066;BME280;40964;42.114;24.220;2023-02-07T04:55:21;99328.06;;;-2.22;53.30
55066;BME280;40964;42.114;24.220;2023-02-07T04:57:47;99332.91;;;-2.18;53.20
55066;BME280;40964;42.114;24.220;2023-02-07T05:00:13;99321.88;;;-2.20;52.54
55066;BME280;40964;42.114;24.220;2023-02-07T05:02:39;99331.97;;;-2.17;51.98
55066;BME280;40964;42.114;24.220;2023-02-07T05:05:04;99339.91;;;-2.20;52.37
55066;BME280;40964;42.114;24.220;2023-02-07T05:07:30;99328.41;;;-2.14;52.55
55066;BME280;40964;42.114;24.220;2023-02-07T05:09:55;99340.38;;;-2.13;53.35
55066;BME280;40964;42.114;24.220;2023-02-07T05:12:20;99334.50;;;-2.15;53.62
55066;BME280;40964;42.114;24.220;2023-02-07T05:14:46;99344.38;;;-2.09;53.47
55066;BME280;40964;42.114;24.220;2023-02-07T05:17:12;99335.66;;;-2.07;53.26
55066;BME280;40964;42.114;24.220;2023-02-07T05:19:37;99339.19;;;-1.95;52.57
55066;BME280;40964;42.114;24.220;2023-02-07T05:22:03;99344.34;;;-1.95;53.15
55066;BME280;40964;42.114;24.220;2023-02-07T05:24:28;99347.19;;;-2.00;53.20
55066;BME280;40964;42.114;24.220;2023-02-07T05:26:56;99341.22;;;-2.00;53.63
55066;BME280;40964;42.114;24.220;2023-02-07T05:29:22;99341.22;;;-2.00;53.70
55066;BME280;40964;42.114;24.220;2023-02-07T05:31:47;99348.56;;;-1.94;53.45
55066;BME280;40964;42.114;24.220;2023-02-07T05:34:31;99349.09;;;-2.16;54.83
55066;BME280;40964;42.114;24.220;2023-02-07T05:36:56;99356.94;;;-2.17;55.99
55066;BME280;40964;42.114;24.220;2023-02-07T05:39:22;99351.97;;;-2.20;56.48
55066;BME280;40964;42.114;24.220;2023-02-07T05:41:47;99356.00;;;-2.16;58.51
55066;BME280;40964;42.114;24.220;2023-02-07T05:44:12;99358.25;;;-2.24;59.20
55066;BME280;40964;42.114;24.220;2023-02-07T05:46:38;99369.28;;;-2.22;59.83
55066;BME280;40964;42.114;24.220;2023-02-07T05:49:03;99369.41;;;-2.24;59.98
55066;BME280;40964;42.114;24.220;2023-02-07T05:51:29;99376.19;;;-2.23;59.81
55066;BME280;40964;42.114;24.220;2023-02-07T05:53:54;99374.19;;;-2.32;59.68
55066;BME280;40964;42.114;24.220;2023-02-07T05:56:20;99367.66;;;-2.38;59.26
55066;BME280;40964;42.114;24.220;2023-02-07T05:58:45;99375.50;;;-2.39;59.58
55066;BME280;40964;42.114;24.220;2023-02-07T06:01:11;99384.44;;;-2.45;59.55
55066;BME280;40964;42.114;24.220;2023-02-07T06:03:36;99377.97;;;-2.38;58.88
55066;BME280;40964;42.114;24.220;2023-02-07T06:06:02;99383.03;;;-2.36;58.73
55066;BME280;40964;42.114;24.220;2023-02-07T06:08:27;99378.81;;;-2.37;58.68
55066;BME280;40964;42.114;24.220;2023-02-07T06:10:53;99377.16;;;-2.38;58.54
55066;BME280;40964;42.114;24.220;2023-02-07T06:13:18;99369.31;;;-2.37;57.88
55066;BME280;40964;42.114;24.220;2023-02-07T06:15:44;99378.94;;;-2.26;57.45
55066;BME280;40964;42.114;24.220;2023-02-07T06:18:09;99384.31;;;-2.29;56.88
55066;BME280;40964;42.114;24.220;2023-02-07T06:20:34;99389.72;;;-2.19;57.22
55066;BME280;40964;42.114;24.220;2023-02-07T06:23:00;99387.84;;;-2.17;57.23
55066;BME280;40964;42.114;24.220;2023-02-07T06:25:26;99384.28;;;-2.15;57.74
55066;BME280;40964;42.114;24.220;2023-02-07T06:27:51;99389.13;;;-2.10;57.53
55066;BME280;40964;42.114;24.220;2023-02-07T06:30:17;99394.94;;;-2.07;56.50
55066;BME280;40964;42.114;24.220;2023-02-07T06:32:43;99394.00;;;-2.06;56.32
55066;BME280;40964;42.114;24.220;2023-02-07T06:35:08;99387.28;;;-2.08;57.21
55066;BME280;40964;42.114;24.220;2023-02-07T06:37:34;99397.53;;;-1.94;55.95
55066;BME280;40964;42.114;24.220;2023-02-07T06:39:59;99394.53;;;-2.01;56.65
55066;BME280;40964;42.114;24.220;2023-02-07T06:42:25;99403.53;;;-1.93;56.44
55066;BME280;40964;42.114;24.220;2023-02-07T06:44:50;99399.19;;;-1.93;56.09
55066;BME280;40964;42.114;24.220;2023-02-07T06:47:16;99401.91;;;-1.82;55.63
55066;BME280;40964;42.114;24.220;2023-02-07T06:49:43;99406.44;;;-1.85;56.13
55066;BME280;40964;42.114;24.220;2023-02-07T06:52:09;99407.72;;;-1.78;55.72
55066;BME280;40964;42.114;24.220;2023-02-07T06:54:34;99411.63;;;-1.73;56.29
55066;BME280;40964;42.114;24.220;2023-02-07T06:57:00;99401.13;;;-1.69;56.11
55066;BME280;40964;42.114;24.220;2023-02-07T06:59:25;99401.25;;;-1.58;55.67
55066;BME280;40964;42.114;24.220;2023-02-07T07:01:51;99406.31;;;-1.44;55.21
55066;BME280;40964;42.114;24.220;2023-02-07T07:04:16;99388.06;;;-1.41;55.20
55066;BME280;40964;42.114;24.220;2023-02-07T07:06:42;99399.00;;;-1.37;54.91
55066;BME280;40964;42.114;24.220;2023-02-07T07:09:08;99402.03;;;-1.31;54.79
55066;BME280;40964;42.114;24.220;2023-02-07T07:11:34;99395.38;;;-1.35;53.99
55066;BME280;40964;42.114;24.220;2023-02-07T07:14:00;99392.72;;;-1.21;54.19
55066;BME280;40964;42.114;24.220;2023-02-07T07:16:27;99406.34;;;-1.19;53.87
55066;BME280;40964;42.114;24.220;2023-02-07T07:18:52;99407.09;;;-1.04;54.65
55066;BME280;40964;42.114;24.220;2023-02-07T07:21:18;99410.72;;;-1.06;53.38
55066;BME280;40964;42.114;24.220;2023-02-07T07:23:43;99407.63;;;-0.99;53.86
55066;BME280;40964;42.114;24.220;2023-02-07T07:26:09;99392.53;;;-1.05;53.34
55066;BME280;40964;42.114;24.220;2023-02-07T07:28:34;99397.91;;;-0.95;54.19
55066;BME280;40964;42.114;24.220;2023-02-07T07:31:04;99412.06;;;-0.88;53.73
55066;BME280;40964;42.114;24.220;2023-02-07T07:33:30;99414.22;;;-0.95;53.37
55066;BME280;40964;42.114;24.220;2023-02-07T07:35:57;99415.47;;;-0.88;53.30
55066;BME280;40964;42.114;24.220;2023-02-07T07:38:23;99410.00;;;-0.96;53.68
55066;BME280;40964;42.114;24.220;2023-02-07T07:40:48;99413.50;;;-0.84;54.30
55066;BME280;40964;42.114;24.220;2023-02-07T07:43:14;99406.88;;;-0.75;53.88
55066;BME280;40964;42.114;24.220;2023-02-07T07:45:39;99404.28;;;-0.75;53.15
55066;BME280;40964;42.114;24.220;2023-02-07T07:48:05;99400.88;;;-0.76;53.39
55066;BME280;40964;42.114;24.220;2023-02-07T07:50:30;99406.25;;;-0.79;53.66
55066;BME280;40964;42.114;24.220;2023-02-07T07:52:55;99407.81;;;-0.76;52.47
55066;BME280;40964;42.114;24.220;2023-02-07T07:55:21;99410.28;;;-0.75;53.69
55066;BME280;40964;42.114;24.220;2023-02-07T07:57:47;99408.22;;;-0.70;53.65
55066;BME280;40964;42.114;24.220;2023-02-07T08:00:13;99409.22;;;-0.60;52.68
55066;BME280;40964;42.114;24.220;2023-02-07T08:02:39;99411.19;;;-0.63;52.66
55066;BME280;40964;42.114;24.220;2023-02-07T08:05:05;99418.63;;;-0.59;52.17
55066;BME280;40964;42.114;24.220;2023-02-07T08:07:30;99411.38;;;-0.41;52.06
55066;BME280;40964;42.114;24.220;2023-02-07T08:09:56;99416.94;;;-0.34;52.17
55066;BME280;40964;42.114;24.220;2023-02-07T08:12:21;99413.53;;;-0.47;51.96
55066;BME280;40964;42.114;24.220;2023-02-07T08:14:47;99411.53;;;-0.31;52.04
55066;BME280;40964;42.114;24.220;2023-02-07T08:17:12;99410.13;;;-0.35;51.47
55066;BME280;40964;42.114;24.220;2023-02-07T08:19:38;99413.06;;;-0.29;51.76
55066;BME280;40964;42.114;24.220;2023-02-07T08:22:03;99414.19;;;-0.20;51.88
55066;BME280;40964;42.114;24.220;2023-02-07T08:24:29;99407.47;;;-0.22;52.68
55066;BME280;40964;42.114;24.220;2023-02-07T08:26:55;99404.47;;;-0.16;51.06
55066;BME280;40964;42.114;24.220;2023-02-07T08:29:20;99411.88;;;-0.36;51.27
55066;BME280;40964;42.114;24.220;2023-02-07T08:31:46;99412.59;;;-0.46;51.86
55066;BME280;40964;42.114;24.220;2023-02-07T08:34:13;99405.59;;;-0.57;51.41
55066;BME280;40964;42.114;24.220;2023-02-07T08:36:39;99411.41;;;-0.53;52.10
55066;BME280;40964;42.114;24.220;2023-02-07T08:39:04;99400.03;;;-0.64;52.05
55066;BME280;40964;42.114;24.220;2023-02-07T08:41:30;99410.66;;;-0.55;52.08
55066;BME280;40964;42.114;24.220;2023-02-07T08:43:55;99413.47;;;-0.59;51.64
55066;BME280;40964;42.114;24.220;2023-02-07T08:46:21;99403.06;;;-0.70;51.46
55066;BME280;40964;42.114;24.220;2023-02-07T08:48:46;99409.53;;;-0.51;51.43
55066;BME280;40964;42.114;24.220;2023-02-07T08:51:11;99378.47;;;-0.39;51.30
55066;BME280;40964;42.114;24.220;2023-02-07T08:53:37;99393.13;;;-0.03;49.92
55066;BME280;40964;42.114;24.220;2023-02-07T08:56:02;99392.63;;;0.16;49.69
55066;BME280;40964;42.114;24.220;2023-02-07T08:58:29;99389.88;;;0.31;49.16
55066;BME280;40964;42.114;24.220;2023-02-07T09:00:54;99397.78;;;0.40;49.53
55066;BME280;40964;42.114;24.220;2023-02-07T09:03:20;99398.06;;;0.48;48.23
55066;BME280;40964;42.114;24.220;2023-02-07T09:05:45;99400.81;;;0.69;48.52
55066;BME280;40964;42.114;24.220;2023-02-07T09:08:11;99396.94;;;0.64;48.13
55066;BME280;40964;42.114;24.220;2023-02-07T09:10:36;99402.00;;;0.76;47.72
55066;BME280;40964;42.114;24.220;2023-02-07T09:13:01;99383.25;;;0.62;45.46
55066;BME280;40964;42.114;24.220;2023-02-07T09:15:27;99379.41;;;0.67;44.97
55066;BME280;40964;42.114;24.220;2023-02-07T09:17:52;99377.19;;;0.85;44.94
55066;BME280;40964;42.114;24.220;2023-02-07T09:20:18;99381.91;;;1.02;44.03
55066;BME280;40964;42.114;24.220;2023-02-07T09:22:44;99395.31;;;0.96;44.27
55066;BME280;40964;42.114;24.220;2023-02-07T09:25:27;99380.59;;;0.97;44.87
55066;BME280;40964;42.114;24.220;2023-02-07T09:27:53;99385.66;;;0.98;42.94
55066;BME280;40964;42.114;24.220;2023-02-07T09:30:20;99386.03;;;0.82;44.29
55066;BME280;40964;42.114;24.220;2023-02-07T09:32:45;99377.44;;;0.82;42.98
55066;BME280;40964;42.114;24.220;2023-02-07T09:35:11;99374.25;;;0.90;43.42
55066;BME280;40964;42.114;24.220;2023-02-07T09:37:36;99343.63;;;1.06;41.41
55066;BME280;40964;42.114;24.220;2023-02-07T09:40:02;99368.16;;;0.91;41.07
55066;BME280;40964;42.114;24.220;2023-02-07T09:42:39;99368.47;;;0.64;40.59
55066;BME280;40964;42.114;24.220;2023-02-07T09:45:11;99363.72;;;0.57;40.14
55066;BME280;40964;42.114;24.220;2023-02-07T09:47:41;99350.03;;;0.44;41.30
55066;BME280;40964;42.114;24.220;2023-02-07T09:50:14;99360.19;;;0.59;40.69
55066;BME280;40964;42.114;24.220;2023-02-07T09:52:52;99356.16;;;0.43;42.98
55066;BME280;40964;42.114;24.220;2023-02-07T09:55:24;99340.50;;;0.45;42.98
55066;BME280;40964;42.114;24.220;2023-02-07T09:57:55;99343.72;;;0.48;43.60
55066;BME280;40964;42.114;24.220;2023-02-07T10:00:34;99352.53;;;0.46;42.97
55066;BME280;40964;42.114;24.220;2023-02-07T10:03:21;99313.47;;;0.49;43.01
55066;BME280;40964;42.114;24.220;2023-02-07T10:05:52;99350.84;;;1.02;43.30
55066;BME280;40964;42.114;24.220;2023-02-07T10:08:21;99321.63;;;1.23;40.94
55066;BME280;40964;42.114;24.220;2023-02-07T10:18:57;99323.91;;;1.59;41.21
55066;BME280;40964;42.114;24.220;2023-02-07T10:27:04;99325.38;;;1.84;40.63
55066;BME280;40964;42.114;24.220;2023-02-07T10:32:31;99335.38;;;1.23;40.69
55066;BME280;40964;42.114;24.220;2023-02-07T10:34:59;99328.91;;;1.06;40.67
55066;BME280;40964;42.114;24.220;2023-02-07T10:37:29;99328.09;;;0.72;40.98
55066;BME280;40964;42.114;24.220;2023-02-07T10:40:16;99331.88;;;0.91;41.49
55066;BME280;40964;42.114;24.220;2023-02-07T10:42:49;99319.88;;;1.12;40.68
55066;BME280;40964;42.114;24.220;2023-02-07T10:45:16;99324.66;;;1.39;40.52
55066;BME280;40964;42.114;24.220;2023-02-07T10:47:42;99309.81;;;1.41;40.97
55066;BME280;40964;42.114;24.220;2023-02-07T10:50:11;99313.63;;;1.69;40.49
55066;BME280;40964;42.114;24.220;2023-02-07T10:52:43;99315.47;;;1.89;39.24
55066;BME280;40964;42.114;24.220;2023-02-07T10:55:12;99305.28;;;2.39;40.10
55066;BME280;40964;42.114;24.220;2023-02-07T10:57:53;99312.19;;;2.29;38.58
55066;BME280;40964;42.114;24.220;2023-02-07T11:00:25;99321.31;;;2.23;39.94
55066;BME280;40964;42.114;24.220;2023-02-07T11:03:03;99314.22;;;1.61;39.43
55066;BME280;40964;42.114;24.220;2023-02-07T11:05:38;99303.97;;;1.60;40.31
55066;BME280;40964;42.114;24.220;2023-02-07T11:10:41;99299.91;;;1.46;38.87
55066;BME280;40964;42.114;24.220;2023-02-07T11:13:19;99304.41;;;1.44;40.50
55066;BME280;40964;42.114;24.220;2023-02-07T11:15:49;99299.34;;;1.31;41.00
55066;BME280;40964;42.114;24.220;2023-02-07T11:18:25;99309.72;;;1.20;40.09
55066;BME280;40964;42.114;24.220;2023-02-07T11:20:52;99301.22;;;1.29;40.79
55066;BME280;40964;42.114;24.220;2023-02-07T11:23:21;99304.28;;;1.34;40.60
55066;BME280;40964;42.114;24.220;2023-02-07T11:25:47;99285.06;;;1.48;41.38
55066;BME280;40964;42.114;24.220;2023-02-07T11:28:28;99292.28;;;1.97;39.35
55066;BME280;40964;42.114;24.220;2023-02-07T11:31:23;99280.72;;;1.81;41.41
55066;BME280;40964;42.114;24.220;2023-02-07T11:33:52;99291.00;;;1.71;41.37
55066;BME280;40964;42.114;24.220;2023-02-07T11:38:54;99266.31;;;0.90;40.68
55066;BME280;40964;42.114;24.220;2023-02-07T11:41:23;99287.00;;;0.79;41.98
55066;BME280;40964;42.114;24.220;2023-02-07T11:44:00;99279.72;;;0.73;42.36
55066;BME280;40964;42.114;24.220;2023-02-07T11:46:29;99277.69;;;1.21;42.69
55066;BME280;40964;42.114;24.220;2023-02-07T11:48:57;99269.66;;;1.35;41.02
55066;BME280;40964;42.114;24.220;2023-02-07T11:51:23;99266.75;;;1.18;40.40
55066;BME280;40964;42.114;24.220;2023-02-07T11:54:00;99266.13;;;1.36;39.99
55066;BME280;40964;42.114;24.220;2023-02-07T11:58:58;99256.88;;;1.43;40.42
55066;BME280;40964;42.114;24.220;2023-02-07T12:01:27;99247.00;;;1.49;38.91
55066;BME280;40964;42.114;24.220;2023-02-07T12:03:57;99245.28;;;1.16;39.06
55066;BME280;40964;42.114;24.220;2023-02-07T12:06:38;99239.22;;;0.94;38.82
55066;BME280;40964;42.114;24.220;2023-02-07T12:09:20;99244.16;;;0.86;39.07
55066;BME280;40964;42.114;24.220;2023-02-07T12:11:48;99238.25;;;1.06;38.17
55066;BME280;40964;42.114;24.220;2023-02-07T12:16:58;99232.34;;;1.27;37.63
55066;BME280;40964;42.114;24.220;2023-02-07T12:19:29;99225.69;;;1.45;38.32
55066;BME280;40964;42.114;24.220;2023-02-07T12:22:17;99234.19;;;1.68;37.10
55066;BME280;40964;42.114;24.220;2023-02-07T12:24:58;99223.53;;;1.82;36.20
55066;BME280;40964;42.114;24.220;2023-02-07T12:27:33;99231.56;;;2.00;37.47
55066;BME280;40964;42.114;24.220;2023-02-07T12:35:47;99232.03;;;2.97;35.88
55066;BME280;40964;42.114;24.220;2023-02-07T12:38:47;99229.13;;;2.90;36.34
55066;BME280;40964;42.114;24.220;2023-02-07T12:41:37;99225.66;;;2.70;37.60
55066;BME280;40964;42.114;24.220;2023-02-07T12:49:24;99230.81;;;2.40;37.32
55066;BME280;40964;42.114;24.220;2023-02-07T13:13:24;99239.34;;;2.00;37.61
55066;BME280;40964;42.114;24.220;2023-02-07T13:16:26;99234.06;;;2.32;36.63
55066;BME280;40964;42.114;24.220;2023-02-07T13:19:31;99236.84;;;2.40;36.44
55066;BME280;40964;42.114;24.220;2023-02-07T13:22:08;99222.09;;;2.41;36.56
55066;BME280;40964;42.114;24.220;2023-02-07T13:24:39;99227.72;;;2.46;35.79
55066;BME280;40964;42.114;24.220;2023-02-07T13:27:12;99243.44;;;2.44;35.02
55066;BME280;40964;42.114;24.220;2023-02-07T13:29:43;99234.19;;;2.31;37.60
55066;BME280;40964;42.114;24.220;2023-02-07T13:32:19;99232.22;;;2.23;38.60
55066;BME280;40964;42.114;24.220;2023-02-07T13:35:04;99235.84;;;2.32;37.72
55066;BME280;40964;42.114;24.220;2023-02-07T13:40:26;99235.34;;;2.38;38.42
55066;BME280;40964;42.114;24.220;2023-02-07T13:45:42;99243.75;;;2.30;37.54
55066;BME280;40964;42.114;24.220;2023-02-07T13:53:46;99242.13;;;2.29;38.47
55066;BME280;40964;42.114;24.220;2023-02-07T13:56:15;99237.06;;;2.27;37.46
55066;BME280;40964;42.114;24.220;2023-02-07T13:59:00;99233.50;;;2.28;36.71
55066;BME280;40964;42.114;24.220;2023-02-07T14:01:50;99240.50;;;2.07;37.48
55066;BME280;40964;42.114;24.220;2023-02-07T14:04:18;99229.16;;;2.08;36.80
55066;BME280;40964;42.114;24.220;2023-02-07T14:07:05;99234.66;;;1.94;38.05
55066;BME280;40964;42.114;24.220;2023-02-07T14:09:39;99231.72;;;1.87;38.36
55066;BME280;40964;42.114;24.220;2023-02-07T14:12:21;99231.22;;;1.73;39.63
55066;BME280;40964;42.114;24.220;2023-02-07T14:14:48;99228.91;;;1.58;38.86
55066;BME280;40964;42.114;24.220;2023-02-07T14:23:03;99235.31;;;1.43;40.59
55066;BME280;40964;42.114;24.220;2023-02-07T14:25:37;99233.50;;;1.23;40.35
55066;BME280;40964;42.114;24.220;2023-02-07T14:30:54;99231.66;;;1.13;41.33
55066;BME280;40964;42.114;24.220;2023-02-07T14:33:21;99238.97;;;1.08;41.58
55066;BME280;40964;42.114;24.220;2023-02-07T14:38:42;99233.56;;;0.89;41.51
55066;BME280;40964;42.114;24.220;2023-02-07T14:41:14;99242.03;;;0.80;41.49
55066;BME280;40964;42.114;24.220;2023-02-07T14:43:43;99245.38;;;0.82;41.46
55066;BME280;40964;42.114;24.220;2023-02-07T14:46:14;99242.03;;;0.80;41.97
55066;BME280;40964;42.114;24.220;2023-02-07T14:48:53;99246.91;;;0.73;41.39
55066;BME280;40964;42.114;24.220;2023-02-07T14:51:30;99236.19;;;0.67;41.23
55066;BME280;40964;42.114;24.220;2023-02-07T14:54:02;99238.66;;;0.68;42.04
55066;BME280;40964;42.114;24.220;2023-02-07T14:57:16;99245.94;;;0.74;42.36
55066;BME280;40964;42.114;24.220;2023-02-07T15:00:34;99249.38;;;0.75;42.75
55066;BME280;40964;42.114;24.220;2023-02-07T15:03:09;99246.41;;;0.68;42.31
55066;BME280;40964;42.114;24.220;2023-02-07T15:05:48;99250.16;;;0.53;41.60
55066;BME280;40964;42.114;24.220;2023-02-07T15:08:20;99252.63;;;0.43;42.41